Terminal Aerodrome Forecast
Issued by NWS Rapid City, SD

Home | Current Version | Previous Version | Text Only | Print | Product List | Glossary On
Versions: 1 2 3 4 5 6 7 8 9 10 11 12 13 14 15 16 17 18 19 20 21 22 23 24 25 26 27 28 29
766
FTUS43 KUNR 250107 AAA
TAFRAP
TAF AMD
KRAP 250107Z 2501/2524 35011KT P6SM OVC021
     FM250500 35007KT P6SM VCSH OVC015
     FM250900 01006KT P6SM OVC007
     FM251700 04006KT P6SM BKN015
     FM252100 05007KT P6SM BKN035=

USA.gov is the U.S. government's official web portal to all federal, state and local government web resources and services.